Time;durP1;ratioP1;P1;durP2;ratioP2;P2;SDS_P1;SDS_P2;PMS_P1;PMS_P2;Temp;Humidity;BMP_temperature;BMP_pressure;BME280_temperature;BME280_humidity;BME280_pressure;Samples;Min_cycle;Max_cycle;Signal;HPM_P1;HPM_P2
2022/04/01 00:01:21;;;;;;;4.90;2.20;;;1.40;1.00;;;;;;5047813;28;20044;-79
2022/04/01 00:03:47;;;;;;;3.38;2.25;;;1.40;1.00;;;;;;5057485;28;20044;-78
2022/04/01 00:06:12;;;;;;;5.55;2.40;;;1.50;1.00;;;;;;5036771;28;20132;-79
2022/04/01 00:08:38;;;;;;;3.20;1.90;;;1.50;1.00;;;;;;5037577;28;20037;-79
2022/04/01 00:11:07;;;;;;;4.05;2.22;;;1.40;1.00;;;;;;5054008;28;20068;-79
2022/04/01 00:13:32;;;;;;;3.92;2.00;;;1.50;1.00;;;;;;5064080;28;20399;-79
2022/04/01 00:15:59;;;;;;;3.38;1.90;;;1.40;1.00;;;;;;5038290;28;20075;-79
2022/04/01 00:18:25;;;;;;;3.25;1.90;;;1.40;1.00;;;;;;5056330;28;20051;-79
2022/04/01 00:20:51;;;;;;;4.30;1.95;;;1.40;1.00;;;;;;5039073;28;20044;-78
2022/04/01 00:23:19;;;;;;;3.72;2.03;;;1.50;99.90;;;;;;5055631;28;20172;-79
2022/04/01 00:25:45;;;;;;;2.47;1.75;;;1.40;99.90;;;;;;5038424;28;20464;-79
2022/04/01 00:28:11;;;;;;;5.65;1.85;;;1.50;99.90;;;;;;5064477;28;20040;-79
2022/04/01 00:30:40;;;;;;;2.42;1.70;;;1.50;99.90;;;;;;5048218;28;20040;-80
2022/04/01 00:33:08;;;;;;;3.35;1.80;;;1.50;99.90;;;;;;5038657;28;20036;-79
2022/04/01 00:35:35;;;;;;;2.72;1.95;;;1.50;99.90;;;;;;5051836;28;20043;-79
2022/04/01 00:38:01;;;;;;;3.28;1.80;;;1.50;99.90;;;;;;5053104;28;20029;-79
2022/04/01 00:40:27;;;;;;;4.55;2.20;;;1.50;99.90;;;;;;5054949;28;20043;-79
2022/04/01 00:42:52;;;;;;;2.83;1.98;;;1.50;1.00;;;;;;5054916;28;20037;-79
2022/04/01 00:45:18;;;;;;;3.05;1.67;;;1.50;14.50;;;;;;5066331;28;20040;-79
2022/04/01 00:47:44;;;;;;;3.10;1.90;;;1.50;1.00;;;;;;5052926;28;20067;-79
2022/04/01 00:50:10;;;;;;;3.42;2.10;;;1.60;1.00;;;;;;5070475;28;20036;-79
2022/04/01 00:52:37;;;;;;;3.20;2.05;;;1.60;1.00;;;;;;5062407;28;20488;-79
2022/04/01 00:55:08;;;;;;;4.82;1.95;;;1.50;1.00;;;;;;5038649;28;20670;-79
2022/04/01 00:57:37;;;;;;;3.88;2.25;;;1.60;99.90;;;;;;5036096;28;20582;-79
2022/04/01 01:00:07;;;;;;;3.90;1.90;;;1.60;1.00;;;;;;5049099;28;20044;-79
2022/04/01 01:02:34;;;;;;;3.17;2.00;;;1.60;99.90;;;;;;5054793;28;20032;-79
2022/04/01 01:05:00;;;;;;;3.08;1.80;;;1.60;99.90;;;;;;5034144;28;20115;-79
2022/04/01 01:07:26;;;;;;;4.10;1.90;;;1.60;99.90;;;;;;5050736;28;20051;-79
2022/04/01 01:09:53;;;;;;;4.18;2.22;;;1.60;99.90;;;;;;5038544;28;20044;-84
2022/04/01 01:12:25;;;;;;;2.28;1.70;;;1.60;99.90;;;;;;5036009;28;20033;-84
2022/04/01 01:14:50;;;;;;;4.18;1.77;;;1.60;99.90;;;;;;5035147;28;20075;-84
2022/04/01 01:17:16;;;;;;;3.65;2.03;;;1.60;99.90;;;;;;5052303;28;20127;-85
2022/04/01 01:19:45;;;;;;;3.42;1.95;;;1.60;99.90;;;;;;5053375;28;21314;-84
2022/04/01 01:22:13;;;;;;;4.10;2.00;;;1.60;99.90;;;;;;5062337;28;20051;-84
2022/04/01 01:24:44;;;;;;;4.57;2.10;;;1.70;99.90;;;;;;5050528;28;20036;-84
2022/04/01 01:27:11;;;;;;;3.42;1.90;;;1.60;99.90;;;;;;5055229;28;20029;-84
2022/04/01 01:29:39;;;;;;;4.47;1.73;;;1.70;99.90;;;;;;5053141;28;20046;-85
2022/04/01 01:32:09;;;;;;;2.97;1.92;;;1.70;99.90;;;;;;5036750;28;20032;-84
2022/04/01 01:34:35;;;;;;;3.38;1.75;;;1.70;99.90;;;;;;5035385;28;20117;-84
2022/04/01 01:37:02;;;;;;;3.28;2.20;;;1.70;99.90;;;;;;5059663;28;20045;-84
2022/04/01 01:39:29;;;;;;;3.75;1.92;;;1.80;90.80;;;;;;5047596;28;20119;-85
2022/04/01 01:41:55;;;;;;;6.68;1.48;;;1.80;99.90;;;;;;5035480;28;20029;-84
2022/04/01 01:44:25;;;;;;;3.00;2.25;;;1.80;99.90;;;;;;5052616;28;20041;-84
2022/04/01 01:46:52;;;;;;;4.03;1.92;;;1.70;99.90;;;;;;5037633;28;20067;-84
2022/04/01 01:49:20;;;;;;;4.28;2.10;;;1.70;99.90;;;;;;5045819;28;20053;-85
2022/04/01 01:54:46;;;;;;;3.13;1.70;;;1.70;99.90;;;;;;5053307;28;20379;-85
2022/04/01 01:57:23;;;;;;;2.08;1.70;;;1.80;99.90;;;;;;5035767;28;20079;-85
2022/04/01 01:59:53;;;;;;;5.20;1.90;;;1.80;99.90;;;;;;5037081;28;20036;-84
2022/04/01 02:02:20;;;;;;;3.83;2.10;;;1.80;99.90;;;;;;5050933;28;20032;-84
2022/04/01 02:04:46;;;;;;;3.63;1.73;;;1.80;99.90;;;;;;5035602;28;20028;-84
2022/04/01 02:07:12;;;;;;;3.67;2.00;;;1.70;99.90;;;;;;5045535;28;20045;-84
2022/04/01 02:09:40;;;;;;;3.92;2.10;;;1.70;99.90;;;;;;5048700;28;20041;-84
2022/04/01 02:12:11;;;;;;;4.82;1.80;;;1.80;99.90;;;;;;5048295;28;20481;-84
2022/04/01 02:14:37;;;;;;;5.05;1.80;;;1.70;99.90;;;;;;5047126;28;20064;-84
2022/04/01 02:17:03;;;;;;;3.42;1.70;;;1.80;99.90;;;;;;5052420;28;20064;-85
2022/04/01 02:19:32;;;;;;;1.90;1.40;;;1.70;99.90;;;;;;5067726;28;20438;-85
2022/04/01 02:22:05;;;;;;;4.63;2.03;;;1.70;99.90;;;;;;5035852;28;20036;-85
2022/04/01 02:24:36;;;;;;;4.05;1.90;;;1.80;99.90;;;;;;5051996;28;20056;-84
2022/04/01 02:27:03;;;;;;;4.55;1.90;;;1.80;99.90;;;;;;5050700;28;20227;-84
2022/04/01 02:29:29;;;;;;;3.83;1.80;;;1.80;1.00;;;;;;5052817;28;20033;-84
2022/04/01 02:31:58;;;;;;;4.35;1.88;;;1.80;1.00;;;;;;5031210;28;20036;-84
2022/04/01 02:34:27;;;;;;;4.03;2.03;;;1.80;1.00;;;;;;5033614;28;20119;-85
2022/04/01 02:36:59;;;;;;;4.35;1.63;;;1.80;1.00;;;;;;5046286;28;20091;-85
2022/04/01 02:39:24;;;;;;;3.05;1.65;;;1.80;1.00;;;;;;5033350;28;20040;-85
2022/04/01 02:41:50;;;;;;;3.03;1.95;;;1.80;1.00;;;;;;5068847;28;20382;-85
2022/04/01 02:44:21;;;;;;;3.03;1.83;;;1.80;1.00;;;;;;5035257;28;20407;-85
2022/04/01 02:46:47;;;;;;;5.25;1.70;;;1.80;1.00;;;;;;5033564;28;20117;-85
2022/04/01 02:49:15;;;;;;;4.80;2.05;;;1.70;1.00;;;;;;5038347;28;20724;-84
2022/04/01 02:51:44;;;;;;;3.47;2.05;;;1.80;1.00;;;;;;5053939;28;20513;-85
2022/04/01 02:54:22;;;;;;;4.43;1.55;;;1.80;1.00;;;;;;5042217;28;20049;-85
2022/04/01 02:56:47;;;;;;;4.65;1.80;;;1.70;1.00;;;;;;5054620;28;20109;-85
2022/04/01 02:59:13;;;;;;;4.18;2.05;;;1.80;1.00;;;;;;5039665;28;20395;-83
2022/04/01 03:01:40;;;;;;;3.25;1.75;;;1.80;30.50;;;;;;5045611;28;20033;-85
2022/04/01 03:04:11;;;;;;;3.03;1.73;;;1.70;88.80;;;;;;5039023;28;20047;-85
2022/04/01 03:06:43;;;;;;;6.47;2.05;;;1.80;92.00;;;;;;5063129;28;20061;-85
2022/04/01 03:09:14;;;;;;;4.35;1.98;;;1.80;99.90;;;;;;5056634;28;20097;-85
2022/04/01 03:11:42;;;;;;;2.78;1.85;;;1.80;99.90;;;;;;5040933;28;20036;-86
2022/04/01 03:14:15;;;;;;;5.00;2.17;;;1.80;99.90;;;;;;5048723;28;20032;-86
2022/04/01 03:16:43;;;;;;;5.90;1.90;;;1.80;99.90;;;;;;5051119;28;20033;-85
2022/04/01 03:19:10;;;;;;;8.52;2.30;;;1.80;83.00;;;;;;5040661;28;20324;-85
2022/04/01 03:21:41;;;;;;;5.90;2.00;;;1.80;99.90;;;;;;5068759;28;20086;-85
2022/04/01 03:24:10;;;;;;;5.00;2.30;;;1.80;7.30;;;;;;5038111;28;20037;-85
2022/04/01 03:26:37;;;;;;;3.85;1.90;;;1.80;12.20;;;;;;5038990;28;20044;-85
2022/04/01 03:29:10;;;;;;;3.05;1.75;;;1.80;69.90;;;;;;5039148;28;20047;-86
2022/04/01 03:31:37;;;;;;;3.60;2.10;;;1.80;7.00;;;;;;5037552;28;20041;-85
2022/04/01 03:34:04;;;;;;;3.85;1.80;;;1.80;1.00;;;;;;5056273;28;20037;-85
2022/04/01 03:36:31;;;;;;;5.88;1.73;;;1.90;1.00;;;;;;5060581;28;20146;-85
2022/04/01 03:38:59;;;;;;;2.25;1.65;;;1.90;99.90;;;;;;5039691;28;20063;-85
2022/04/01 03:41:25;;;;;;;3.25;1.98;;;1.90;99.90;;;;;;5036088;28;20043;-85
2022/04/01 03:43:54;;;;;;;4.75;1.50;;;1.90;99.90;;;;;;5038460;28;20456;-85
2022/04/01 03:46:22;;;;;;;2.75;1.83;;;1.80;99.90;;;;;;5036874;28;20121;-85
2022/04/01 03:49:04;;;;;;;2.97;1.70;;;1.90;99.90;;;;;;5061973;28;20063;-86
2022/04/01 03:51:31;;;;;;;4.75;1.80;;;1.90;99.90;;;;;;5051762;28;20033;-85
2022/04/01 03:54:02;;;;;;;3.58;1.63;;;1.90;99.90;;;;;;5051967;28;20047;-86
2022/04/01 03:56:37;;;;;;;2.15;1.60;;;1.90;99.90;;;;;;5052813;28;20045;-85
2022/04/01 03:59:08;;;;;;;3.88;1.80;;;2.00;99.90;;;;;;5035890;28;20357;-85
2022/04/01 04:01:38;;;;;;;7.07;1.80;;;1.90;99.90;;;;;;5047736;28;20052;-85
2022/04/01 04:04:05;;;;;;;3.38;2.10;;;1.90;99.90;;;;;;5054624;28;20285;-85
2022/04/01 04:06:35;;;;;;;4.72;1.70;;;2.00;99.90;;;;;;5043702;28;20133;-86
2022/04/01 04:09:02;;;;;;;2.85;1.60;;;1.90;99.90;;;;;;5056104;28;20527;-85
2022/04/01 04:11:30;;;;;;;3.83;1.73;;;2.00;99.90;;;;;;5054875;28;20045;-85
2022/04/01 04:13:59;;;;;;;3.95;2.35;;;2.00;99.90;;;;;;5059111;28;20067;-86
2022/04/01 04:16:29;;;;;;;2.97;1.50;;;1.90;99.90;;;;;;5038636;28;20041;-85
2022/04/01 04:19:37;;;;;;;3.88;1.75;;;2.00;99.90;;;;;;5055824;28;20564;-85
2022/04/01 04:22:11;;;;;;;3.70;1.70;;;2.00;99.90;;;;;;5054823;28;20517;-85
2022/04/01 04:24:54;;;;;;;2.95;1.88;;;2.00;99.90;;;;;;5056434;28;20033;-86
2022/04/01 04:27:28;;;;;;;4.25;1.70;;;1.90;99.90;;;;;;5038360;28;20044;-85
2022/04/01 04:30:07;;;;;;;3.88;1.67;;;2.00;99.90;;;;;;5055215;28;20063;-86
2022/04/01 04:33:04;;;;;;;3.72;1.60;;;2.00;99.90;;;;;;5052394;28;20298;-85
2022/04/01 04:35:36;;;;;;;2.70;1.30;;;2.00;99.90;;;;;;5070053;28;20076;-86
2022/04/01 04:38:05;;;;;;;3.72;1.67;;;2.00;99.90;;;;;;5039437;28;20388;-86
2022/04/01 04:40:37;;;;;;;6.03;1.95;;;2.00;99.90;;;;;;5038310;28;20037;-86
2022/04/01 04:43:07;;;;;;;2.40;1.67;;;2.00;99.90;;;;;;5038584;28;20464;-85
2022/04/01 04:45:34;;;;;;;2.72;1.50;;;2.00;99.90;;;;;;5035380;28;20675;-86
2022/04/01 04:48:04;;;;;;;3.63;1.45;;;1.90;99.90;;;;;;5038610;28;20555;-86
2022/04/01 04:50:32;;;;;;;2.10;1.58;;;1.90;99.90;;;;;;5050187;28;20052;-85
2022/04/01 04:53:00;;;;;;;3.40;1.40;;;1.90;99.90;;;;;;5041919;28;20028;-87
2022/04/01 04:55:26;;;;;;;4.95;1.45;;;1.90;99.90;;;;;;5055795;28;20477;-86
2022/04/01 04:57:57;;;;;;;2.72;1.60;;;2.00;99.90;;;;;;5038844;28;20499;-85
2022/04/01 05:00:29;;;;;;;4.03;1.67;;;2.00;99.90;;;;;;5055238;28;20652;-85
2022/04/01 05:03:16;;;;;;;2.88;1.80;;;2.00;99.90;;;;;;5046652;28;20032;-86
2022/04/01 05:05:45;;;;;;;3.03;1.40;;;1.90;99.90;;;;;;5062823;28;20064;-85
2022/04/01 05:08:40;;;;;;;3.28;1.52;;;1.90;99.90;;;;;;5040939;28;20049;-86
2022/04/01 05:11:26;;;;;;;3.28;1.38;;;1.90;99.90;;;;;;5055903;28;20045;-86
2022/04/01 05:14:04;;;;;;;4.43;1.50;;;2.00;99.90;;;;;;5037586;28;20029;-86
2022/04/01 05:16:45;;;;;;;5.63;1.77;;;2.00;99.90;;;;;;5037781;28;20090;-86
2022/04/01 05:19:12;;;;;;;3.65;1.50;;;2.00;99.90;;;;;;5057225;28;20093;-86
2022/04/01 05:22:04;;;;;;;4.47;1.30;;;2.00;99.90;;;;;;5034284;28;20441;-86
2022/04/01 05:24:47;;;;;;;5.22;1.60;;;2.00;99.90;;;;;;5055124;28;20036;-86
2022/04/01 05:27:28;;;;;;;3.10;1.63;;;2.10;99.90;;;;;;5039929;28;20488;-87
2022/04/01 05:30:16;;;;;;;2.22;1.55;;;2.10;99.90;;;;;;5052508;28;20048;-85
2022/04/01 05:33:06;;;;;;;4.47;1.50;;;2.00;99.90;;;;;;5037242;28;20272;-86
2022/04/01 05:35:40;;;;;;;4.13;1.38;;;2.10;99.90;;;;;;5028094;28;20056;-86
2022/04/01 05:38:09;;;;;;;2.43;1.53;;;2.10;99.90;;;;;;5066412;28;20101;-86
2022/04/01 05:40:37;;;;;;;3.00;1.55;;;2.10;99.90;;;;;;5034138;28;20402;-87
2022/04/01 05:43:12;;;;;;;5.40;1.77;;;2.10;99.90;;;;;;5024792;28;20044;-86
2022/04/01 05:45:41;;;;;;;4.93;1.50;;;2.10;99.90;;;;;;5034025;28;20141;-86
2022/04/01 05:48:11;;;;;;;4.65;1.77;;;2.20;99.90;;;;;;5032927;28;20037;-87
2022/04/01 05:50:37;;;;;;;3.22;1.70;;;2.20;99.90;;;;;;5056225;28;20348;-88
2022/04/01 05:53:06;;;;;;;5.85;1.40;;;2.30;99.90;;;;;;5062193;28;20036;-86
2022/04/01 05:55:33;;;;;;;3.90;1.85;;;2.30;99.90;;;;;;5051474;28;20106;-86
2022/04/01 05:58:04;;;;;;;3.75;1.52;;;2.30;99.90;;;;;;5053089;28;20614;-86
2022/04/01 06:00:44;;;;;;;3.08;1.50;;;2.30;99.90;;;;;;5051327;28;20453;-85
2022/04/01 06:03:28;;;;;;;3.45;1.73;;;2.30;99.90;;;;;;5046247;28;20029;-87
2022/04/01 06:05:56;;;;;;;2.60;1.60;;;2.30;98.20;;;;;;5061138;28;20215;-86
2022/04/01 06:09:02;;;;;;;4.88;1.75;;;2.40;99.90;;;;;;5069018;28;20415;-85
2022/04/01 06:11:42;;;;;;;3.88;1.65;;;2.40;99.90;;;;;;5015489;28;20544;-87
2022/04/01 06:14:34;;;;;;;4.68;1.60;;;2.40;99.90;;;;;;5068059;28;20111;-86
2022/04/01 06:17:12;;;;;;;3.30;2.10;;;2.50;95.20;;;;;;5056447;28;20149;-87
2022/04/01 06:19:47;;;;;;;2.80;1.67;;;2.50;92.20;;;;;;5054663;28;20040;-86
2022/04/01 06:22:20;;;;;;;4.43;2.30;;;2.50;99.90;;;;;;5054322;28;20047;-86
2022/04/01 06:25:17;;;;;;;4.15;1.67;;;2.60;80.60;;;;;;5075758;28;20036;-81
2022/04/01 06:27:54;;;;;;;3.08;1.63;;;2.60;52.10;;;;;;5038823;28;20025;-80
2022/04/01 06:30:22;;;;;;;4.38;1.38;;;2.60;74.90;;;;;;5036309;28;20059;-80
2022/04/01 06:33:03;;;;;;;3.08;1.70;;;2.70;1.00;;;;;;5058737;28;20041;-80
2022/04/01 06:35:35;;;;;;;3.92;1.90;;;2.70;16.50;;;;;;5057015;28;20041;-80
2022/04/01 06:38:12;;;;;;;4.07;1.70;;;2.70;1.00;;;;;;5036934;28;20502;-79
2022/04/01 06:41:08;;;;;;;1.83;1.13;;;2.80;7.10;;;;;;5043272;28;20041;-79
2022/04/01 06:43:35;;;;;;;3.50;1.55;;;2.90;1.00;;;;;;5076353;28;20028;-79
2022/04/01 06:46:05;;;;;;;2.88;1.38;;;2.90;1.00;;;;;;5045508;28;20110;-79
2022/04/01 06:48:31;;;;;;;2.33;1.60;;;2.90;1.00;;;;;;5056760;28;20052;-78
2022/04/01 06:51:00;;;;;;;4.90;1.63;;;2.90;1.00;;;;;;5058472;28;20039;-79
2022/04/01 06:53:27;;;;;;;3.75;1.50;;;2.90;1.00;;;;;;5039016;28;20059;-78
2022/04/01 06:55:53;;;;;;;3.50;1.70;;;3.00;25.00;;;;;;5040927;28;20139;-85
2022/04/01 06:58:19;;;;;;;4.50;1.90;;;3.00;1.00;;;;;;5056741;28;20158;-84
2022/04/01 07:00:48;;;;;;;2.92;1.63;;;3.00;1.00;;;;;;5057562;28;20480;-83
2022/04/01 07:03:17;;;;;;;2.65;1.52;;;3.10;1.00;;;;;;5073821;28;20032;-84
2022/04/01 07:05:43;;;;;;;2.63;1.45;;;3.20;1.00;;;;;;5057805;28;20087;-85
2022/04/01 07:08:12;;;;;;;4.72;1.60;;;3.30;1.00;;;;;;5042724;28;20049;-84
2022/04/01 07:10:39;;;;;;;2.65;1.42;;;3.20;1.00;;;;;;5044194;28;20397;-85
2022/04/01 07:13:04;;;;;;;2.97;1.40;;;3.30;1.00;;;;;;5058633;28;20543;-84
2022/04/01 07:15:30;;;;;;;4.43;1.70;;;3.40;1.00;;;;;;5038683;28;20040;-85
2022/04/01 07:17:56;;;;;;;4.45;1.50;;;3.40;1.00;;;;;;5039418;28;20041;-85
2022/04/01 07:20:22;;;;;;;3.80;1.60;;;3.30;1.00;;;;;;5054546;28;20414;-85
2022/04/01 07:22:51;;;;;;;4.63;1.60;;;3.40;1.00;;;;;;5052903;28;20060;-84
2022/04/01 07:25:17;;;;;;;3.53;1.85;;;3.40;1.00;;;;;;5059948;28;20051;-85
2022/04/01 07:27:46;;;;;;;2.75;1.70;;;3.50;1.00;;;;;;5052520;28;20040;-85
2022/04/01 07:30:14;;;;;;;4.75;1.70;;;3.40;1.00;;;;;;5041290;28;20472;-85
2022/04/01 07:32:41;;;;;;;3.67;1.63;;;3.40;1.00;;;;;;5058118;28;20219;-84
2022/04/01 07:35:15;;;;;;;3.63;1.90;;;3.30;99.90;;;;;;5061489;28;20685;-85
2022/04/01 07:37:45;;;;;;;4.75;1.75;;;3.40;1.00;;;;;;5057657;28;20098;-85
2022/04/01 07:40:11;;;;;;;2.65;1.65;;;3.40;1.00;;;;;;5041255;28;20123;-85
2022/04/01 07:42:38;;;;;;;3.25;1.67;;;3.50;1.00;;;;;;5056691;28;20264;-84
2022/04/01 07:45:04;;;;;;;2.97;1.80;;;3.60;1.00;;;;;;5054303;28;20041;-85
2022/04/01 07:47:32;;;;;;;4.85;1.85;;;3.50;1.00;;;;;;5052638;28;20036;-84
2022/04/01 07:49:59;;;;;;;2.85;1.60;;;3.50;1.00;;;;;;5045168;28;20040;-84
2022/04/01 07:52:24;;;;;;;3.63;1.58;;;3.60;1.00;;;;;;5040622;28;20037;-84
2022/04/01 07:54:51;;;;;;;5.63;1.60;;;3.60;1.00;;;;;;5056117;28;20049;-85
2022/04/01 07:57:18;;;;;;;3.35;2.00;;;3.50;99.90;;;;;;5052165;28;20048;-86
2022/04/01 07:59:44;;;;;;;1.90;1.40;;;3.50;1.00;;;;;;5041904;28;20046;-85
2022/04/01 08:02:13;;;;;;;3.67;1.90;;;3.50;1.00;;;;;;5036447;28;20119;-85
2022/04/01 08:04:39;;;;;;;4.13;1.80;;;3.60;1.00;;;;;;5058237;28;20033;-86
2022/04/01 08:07:08;;;;;;;4.75;1.90;;;3.50;1.00;;;;;;5053658;28;20605;-85
2022/04/01 08:09:33;;;;;;;5.10;1.98;;;3.40;1.00;;;;;;5038655;28;20037;-86
2022/04/01 08:12:05;;;;;;;4.80;2.00;;;3.40;1.00;;;;;;5055447;28;20044;-85
2022/04/01 08:14:36;;;;;;;3.08;1.80;;;3.20;1.00;;;;;;5040946;28;20040;-86
2022/04/01 08:17:02;;;;;;;4.30;2.30;;;3.30;1.00;;;;;;5051915;28;20552;-85
2022/04/01 08:19:28;;;;;;;6.47;2.30;;;3.20;30.40;;;;;;5045742;28;20848;-86
2022/04/01 08:21:57;;;;;;;3.97;2.17;;;3.10;12.60;;;;;;5051969;28;20029;-85
2022/04/01 08:24:24;;;;;;;2.40;2.00;;;3.30;99.90;;;;;;5058222;28;20037;-87
2022/04/01 08:26:51;;;;;;;5.25;2.10;;;3.20;99.90;;;;;;5068457;28;20135;-85
2022/04/01 08:29:16;;;;;;;6.18;2.33;;;3.40;99.90;;;;;;5043310;28;20040;-85
2022/04/01 08:31:42;;;;;;;4.40;1.92;;;3.60;99.90;;;;;;5059993;28;20487;-86
2022/04/01 08:34:09;;;;;;;2.88;1.98;;;3.40;99.90;;;;;;5075944;28;20116;-85
2022/04/01 08:36:34;;;;;;;3.80;2.13;;;3.30;99.90;;;;;;5050462;28;20040;-86
2022/04/01 08:39:04;;;;;;;4.85;2.17;;;3.10;1.00;;;;;;5038618;28;20229;-86
2022/04/01 08:41:29;;;;;;;4.78;2.35;;;2.80;99.90;;;;;;5037521;28;20039;-85
2022/04/01 08:43:55;;;;;;;3.53;2.42;;;2.70;99.90;;;;;;5057320;28;20040;-86
2022/04/01 08:46:25;;;;;;;4.35;2.10;;;2.70;99.90;;;;;;5054858;28;20416;-85
2022/04/01 08:48:51;;;;;;;4.75;2.00;;;2.60;99.90;;;;;;5040540;28;20048;-85
2022/04/01 08:51:17;;;;;;;3.88;2.33;;;2.50;99.90;;;;;;5045787;28;20136;-86
2022/04/01 08:53:44;;;;;;;5.55;2.42;;;2.60;1.00;;;;;;5052140;28;20119;-85
2022/04/01 08:56:16;;;;;;;5.43;2.65;;;2.40;1.00;;;;;;5040470;28;20040;-85
2022/04/01 08:58:42;;;;;;;3.70;2.78;;;2.40;44.50;;;;;;5037543;28;20075;-85
2022/04/01 09:01:08;;;;;;;5.40;2.67;;;2.40;81.70;;;;;;5054221;28;20071;-85
2022/04/01 09:03:35;;;;;;;5.90;2.95;;;2.60;99.90;;;;;;5054029;28;20062;-85
2022/04/01 09:06:03;;;;;;;5.20;3.10;;;2.50;67.60;;;;;;5047594;28;20060;-86
2022/04/01 09:08:33;;;;;;;5.40;3.40;;;2.60;10.60;;;;;;5052800;28;20044;-85
2022/04/01 09:11:20;;;;;;;6.10;3.53;;;2.70;12.70;;;;;;5049816;28;20371;-85
2022/04/01 09:13:51;;;;;;;6.18;3.80;;;2.60;1.00;;;;;;5056039;28;20087;-85
2022/04/01 09:16:27;;;;;;;6.20;3.70;;;2.70;1.00;;;;;;5046284;28;20094;-85
2022/04/01 09:18:58;;;;;;;5.63;4.00;;;2.80;1.00;;;;;;5053950;28;20067;-85
2022/04/01 09:21:39;;;;;;;5.18;3.70;;;2.80;1.00;;;;;;5037855;28;20580;-85
2022/04/01 09:24:05;;;;;;;8.00;4.20;;;2.90;1.00;;;;;;5054385;28;20455;-84
2022/04/01 09:26:31;;;;;;;6.38;3.78;;;3.20;1.00;;;;;;5048374;28;20403;-86
2022/04/01 09:28:58;;;;;;;5.97;4.45;;;3.10;10.60;;;;;;5054683;28;20059;-85
2022/04/01 09:31:33;;;;;;;8.68;4.45;;;3.40;29.90;;;;;;5038181;28;20041;-85
2022/04/01 09:34:01;;;;;;;6.40;3.88;;;3.70;1.00;;;;;;5054216;28;20040;-86
2022/04/01 09:36:33;;;;;;;6.22;3.88;;;3.70;1.00;;;;;;5040748;28;20053;-86
2022/04/01 09:39:13;;;;;;;5.93;4.15;;;3.50;1.00;;;;;;5052557;28;20132;-85
2022/04/01 09:41:46;;;;;;;7.80;4.50;;;3.40;1.00;;;;;;5040341;28;20111;-86
2022/04/01 09:44:17;;;;;;;6.20;3.95;;;3.50;1.00;;;;;;5032622;28;20040;-85
2022/04/01 09:46:50;;;;;;;5.50;3.92;;;3.70;1.00;;;;;;5065409;28;20085;-86
2022/04/01 09:49:39;;;;;;;8.20;3.60;;;3.50;1.00;;;;;;5053037;28;20112;-85
2022/04/01 09:52:16;;;;;;;5.88;3.60;;;3.90;1.00;;;;;;5065513;28;20068;-85
2022/04/01 09:54:53;;;;;;;6.43;3.40;;;4.00;1.00;;;;;;5051688;28;20044;-85
2022/04/01 09:57:24;;;;;;;5.53;3.38;;;4.20;1.00;;;;;;5050666;28;20044;-86
2022/04/01 09:59:58;;;;;;;5.63;3.13;;;4.50;1.00;;;;;;5055861;28;20024;-86
2022/04/01 10:02:26;;;;;;;6.40;3.70;;;4.70;99.90;;;;;;5037883;28;20269;-86
2022/04/01 10:04:55;;;;;;;5.20;3.15;;;4.60;99.90;;;;;;5074211;28;20179;-84
2022/04/01 10:07:30;;;;;;;5.90;3.47;;;4.50;99.90;;;;;;5032806;28;20070;-86
2022/04/01 10:09:57;;;;;;;3.85;2.83;;;4.70;55.30;;;;;;5041715;28;20055;-86
2022/04/01 10:12:26;;;;;;;5.40;2.97;;;4.40;99.90;;;;;;5053800;28;20044;-86
2022/04/01 10:15:02;;;;;;;4.95;3.10;;;4.40;73.00;;;;;;5044232;28;20040;-86
2022/04/01 10:17:29;;;;;;;3.88;3.00;;;4.80;99.90;;;;;;5064932;28;20150;-86
2022/04/01 10:19:57;;;;;;;5.05;3.00;;;4.90;1.00;;;;;;5051324;28;20546;-86
2022/04/01 10:22:27;;;;;;;4.72;3.13;;;4.90;99.90;;;;;;5051973;28;20044;-86
2022/04/01 10:25:10;;;;;;;4.18;2.97;;;4.90;99.90;;;;;;5037954;28;20033;-86
2022/04/01 10:27:40;;;;;;;4.10;2.65;;;5.30;99.90;;;;;;5051595;28;20072;-85
2022/04/01 10:30:14;;;;;;;3.60;2.53;;;5.20;99.90;;;;;;5036045;28;20127;-86
2022/04/01 10:32:45;;;;;;;5.03;2.60;;;4.80;99.90;;;;;;5047001;28;20601;-86
2022/04/01 10:35:23;;;;;;;3.85;2.53;;;5.10;99.90;;;;;;5075179;28;20048;-87
2022/04/01 10:38:12;;;;;;;4.60;2.72;;;4.50;99.90;;;;;;5049191;28;20409;-86
2022/04/01 10:40:43;;;;;;;4.32;2.50;;;4.80;1.00;;;;;;5056556;28;20045;-86
2022/04/01 10:43:16;;;;;;;5.95;2.53;;;4.90;1.00;;;;;;5040014;28;20072;-87
2022/04/01 10:46:06;;;;;;;6.53;2.90;;;5.00;1.00;;;;;;5064085;28;20048;-86
2022/04/01 10:51:37;;;;;;;3.92;2.50;;;4.60;1.00;;;;;;5057363;28;20079;-87
2022/04/01 10:54:23;;;;;;;4.43;2.22;;;4.90;99.90;;;;;;5061069;28;21170;-86
2022/04/01 10:57:01;;;;;;;5.28;2.47;;;4.50;1.00;;;;;;5052001;28;20052;-86
2022/04/01 10:59:28;;;;;;;4.43;2.47;;;4.40;77.90;;;;;;5045231;28;20039;-86
2022/04/01 11:01:53;;;;;;;5.85;2.50;;;4.20;21.30;;;;;;5038989;28;20064;-86
2022/04/01 11:04:19;;;;;;;5.32;2.60;;;4.30;99.90;;;;;;5036194;28;20460;-88
2022/04/01 11:07:00;;;;;;;3.47;2.13;;;4.10;22.90;;;;;;5074180;28;20065;-86
2022/04/01 11:09:33;;;;;;;3.92;2.40;;;4.60;99.90;;;;;;5068486;28;20135;-87
2022/04/01 11:12:25;;;;;;;5.85;2.60;;;4.90;99.90;;;;;;5057167;28;20369;-86
2022/04/01 11:14:56;;;;;;;4.22;2.70;;;5.20;99.90;;;;;;5050254;28;20153;-86
2022/04/01 11:17:46;;;;;;;6.28;2.90;;;5.20;1.00;;;;;;5037434;28;20048;-86
2022/04/01 11:20:25;;;;;;;4.57;2.50;;;5.70;58.40;;;;;;5020276;28;20049;-87
2022/04/01 11:22:54;;;;;;;4.50;2.28;;;5.20;99.90;;;;;;5047821;28;20033;-86
2022/04/01 11:25:23;;;;;;;3.45;2.20;;;5.10;99.90;;;;;;5061413;28;20040;-87
2022/04/01 11:27:51;;;;;;;3.55;2.30;;;5.50;99.90;;;;;;5059215;28;20382;-87
2022/04/01 11:30:24;;;;;;;3.80;2.20;;;5.80;99.90;;;;;;5059418;28;20025;-87
2022/04/01 11:32:57;;;;;;;3.80;2.10;;;5.70;91.90;;;;;;5040838;28;20024;-89
2022/04/01 11:35:25;;;;;;;4.93;2.10;;;5.80;99.90;;;;;;5060890;28;20368;-86
2022/04/01 11:37:54;;;;;;;2.08;1.88;;;5.90;99.90;;;;;;5051680;28;20108;-87
2022/04/01 11:40:25;;;;;;;4.28;2.10;;;6.10;99.90;;;;;;5042252;28;20071;-86
2022/04/01 11:43:06;;;;;;;3.95;2.30;;;6.30;99.90;;;;;;5067659;28;20068;-87
2022/04/01 11:45:57;;;;;;;3.90;2.47;;;6.00;1.00;;;;;;5048441;28;20039;-87
2022/04/01 11:48:47;;;;;;;5.22;2.42;;;6.10;50.30;;;;;;5069490;28;20488;-86
2022/04/01 11:51:19;;;;;;;4.43;2.30;;;6.20;1.00;;;;;;5066854;28;20055;-88
2022/04/01 11:53:51;;;;;;;3.47;2.20;;;6.60;1.00;;;;;;5059259;28;20635;-86
2022/04/01 11:56:22;;;;;;;3.22;1.80;;;6.70;1.00;;;;;;5062579;28;20053;-87
2022/04/01 11:58:48;;;;;;;5.03;2.50;;;7.00;1.00;;;;;;5054040;28;20128;-86
2022/04/01 12:01:15;;;;;;;3.88;2.53;;;7.10;1.00;;;;;;5041120;28;20029;-87
2022/04/01 12:03:44;;;;;;;3.95;2.20;;;6.70;1.00;;;;;;5059411;28;20110;-87
2022/04/01 12:08:54;;;;;;;5.80;2.22;;;6.30;1.00;;;;;;5058176;28;20044;-87
2022/04/01 12:11:23;;;;;;;7.32;2.50;;;6.10;99.90;;;;;;5060946;28;20429;-86
2022/04/01 12:13:53;;;;;;;5.80;1.98;;;6.50;1.00;;;;;;5059621;28;20515;-87
2022/04/01 12:16:21;;;;;;;6.40;1.90;;;6.40;1.00;;;;;;5062056;28;20128;-86
2022/04/01 12:18:50;;;;;;;3.83;2.20;;;6.30;99.90;;;;;;5056890;28;20037;-87
2022/04/01 12:21:21;;;;;;;4.45;1.98;;;6.40;1.00;;;;;;5060490;28;20535;-87
2022/04/01 12:23:49;;;;;;;4.45;1.90;;;6.50;99.90;;;;;;5055369;28;20484;-87
2022/04/01 12:26:26;;;;;;;4.97;1.80;;;6.60;99.90;;;;;;5055419;28;20049;-87
2022/04/01 12:28:51;;;;;;;3.75;1.90;;;6.50;99.90;;;;;;5066760;28;20359;-87
2022/04/01 12:31:48;;;;;;;2.20;1.65;;;6.40;99.90;;;;;;5055351;28;20044;-87
2022/04/01 12:34:14;;;;;;;3.92;2.05;;;6.70;99.90;;;;;;5058601;28;20064;-87
2022/04/01 12:36:40;;;;;;;5.18;1.83;;;6.80;99.90;;;;;;5064702;28;20058;-87
2022/04/01 12:39:10;;;;;;;2.72;1.70;;;6.80;99.90;;;;;;5042463;28;20392;-87
2022/04/01 12:41:50;;;;;;;3.85;1.88;;;6.80;99.90;;;;;;5038005;28;20059;-87
2022/04/01 12:44:16;;;;;;;4.38;1.98;;;6.40;99.90;;;;;;5056464;28;20020;-88
2022/04/01 12:46:48;;;;;;;4.30;1.90;;;5.90;99.90;;;;;;5039632;28;20146;-87
2022/04/01 12:49:15;;;;;;;5.13;1.75;;;5.30;99.90;;;;;;5059210;28;20039;-88
2022/04/01 12:52:01;;;;;;;3.42;1.80;;;6.10;99.90;;;;;;5041901;28;20223;-88
2022/04/01 12:54:33;;;;;;;2.45;1.90;;;6.30;99.90;;;;;;5055395;28;20041;-87
2022/04/01 12:57:05;;;;;;;3.85;1.90;;;6.00;99.90;;;;;;5054205;28;20041;-87
2022/04/01 12:59:37;;;;;;;1.98;1.70;;;6.30;99.90;;;;;;5067602;28;20231;-88
2022/04/01 13:02:14;;;;;;;4.63;2.30;;;6.00;99.90;;;;;;5069009;28;20035;-88
2022/04/01 13:04:45;;;;;;;2.95;2.10;;;5.50;99.90;;;;;;5052621;28;20036;-87
2022/04/01 13:07:15;;;;;;;3.45;2.00;;;6.10;99.90;;;;;;5061697;28;20052;-86
2022/04/01 13:10:06;;;;;;;3.72;1.95;;;6.20;99.90;;;;;;5057481;28;20159;-89
2022/04/01 13:12:40;;;;;;;6.05;2.17;;;6.10;99.90;;;;;;5041799;28;20105;-87
2022/04/01 13:15:20;;;;;;;5.30;1.83;;;6.40;99.90;;;;;;5043615;28;20032;-83
2022/04/01 13:17:50;;;;;;;4.97;1.92;;;6.40;99.90;;;;;;5041756;28;20471;-82
2022/04/01 13:20:21;;;;;;;3.72;1.98;;;6.30;99.90;;;;;;5060799;28;20111;-87
2022/04/01 13:22:47;;;;;;;5.43;2.20;;;6.30;99.90;;;;;;5054710;28;20035;-87
2022/04/01 13:25:14;;;;;;;3.63;2.15;;;6.30;99.90;;;;;;5042994;28;20558;-88
2022/04/01 13:27:40;;;;;;;3.97;2.00;;;6.20;99.90;;;;;;5041248;28;20047;-87
2022/04/01 13:30:08;;;;;;;5.60;2.00;;;6.30;99.90;;;;;;5038538;28;20036;-87